Bixby, Nebraska
Current Conditions -  °F | °C
As of 10:35 PM on Saturday 22 Nov 2014 (Local Time) from KAUH Reporting Station
Overcast Overcast  
Wind Chill: 54°   Ceiling: 800
Heat Index: 54°   Visibility: 7mi
Dew Point: 53°   Wind: 14mph
Humidity: 94%   Direction: 200°SSW
Pressure: 29.53"   Gusts: 22mph
Location:  40.6539°N, 97.8811°W
Report Text: KAUH 230435Z AUTO 20012G19KT 7SM OVC008 12/12 A2953 RMK AO2 T01240115
Loading
Personal Weather Stations






























Interactive Weather Map New forecast layout! Learn more

10-Day Weather Forecast

Advertisements
Track Severe Weather on mobile